createdAt,value
2023-02-02T00:01:00.737Z,100216.28
2023-02-02T00:04:04.164Z,100217.25
2023-02-02T00:07:07.499Z,100213.87
2023-02-02T00:10:10.660Z,100225.88
2023-02-02T00:13:13.339Z,100237.84
2023-02-02T00:16:31.125Z,100236.22
2023-02-02T00:19:33.631Z,100235.41
2023-02-02T00:22:36.227Z,100237.16
2023-02-02T00:25:38.518Z,100226.03
2023-02-02T00:28:41.339Z,100218.44
2023-02-02T00:31:44.334Z,100213.34
2023-02-02T00:34:47.168Z,100196.19
2023-02-02T00:37:49.598Z,100146.50
2023-02-02T00:40:52.557Z,100141.47
2023-02-02T00:44:13.578Z,100147.56
2023-02-02T00:47:16.867Z,100148.47
2023-02-02T00:50:23.625Z,100143.31
2023-02-02T00:53:26.272Z,100174.91
2023-02-02T00:56:28.658Z,100191.22
2023-02-02T00:59:31.481Z,100197.03
2023-02-02T01:02:34.379Z,100196.03
2023-02-02T01:05:39.400Z,100206.97
2023-02-02T01:08:41.959Z,100205.09
2023-02-02T01:11:44.692Z,100207.69
2023-02-02T01:14:47.184Z,100194.84
2023-02-02T01:17:49.827Z,100180.28
2023-02-02T01:21:02.975Z,100178.66
2023-02-02T01:24:05.931Z,100176.91
2023-02-02T01:27:08.308Z,100171.81
2023-02-02T01:30:11.490Z,100182.13
2023-02-02T01:33:13.862Z,100206.97
2023-02-02T01:36:17.708Z,100201.06
2023-02-02T01:39:20.473Z,100205.34
2023-02-02T01:42:23.556Z,100201.94
2023-02-02T01:45:29.412Z,100210.56
2023-02-02T01:48:36.471Z,100195.12
2023-02-02T01:51:50.393Z,100187.41
2023-02-02T01:54:56.446Z,100173.72
2023-02-02T01:58:07.663Z,100178.78
2023-02-02T02:01:11.884Z,100185.53
2023-02-02T02:04:14.982Z,100172.72
2023-02-02T02:07:19.660Z,100158.13
2023-02-02T02:10:22.527Z,100161.59
2023-02-02T02:13:47.399Z,100159.78
2023-02-02T02:16:58.369Z,100170.84
2023-02-02T02:20:38.079Z,100142.56
2023-02-02T02:24:02.207Z,100137.47
2023-02-02T02:27:33.589Z,100150.38
2023-02-02T02:30:42.366Z,100149.47
2023-02-02T02:33:49.152Z,100149.44
2023-02-02T02:36:57.009Z,100151.97
2023-02-02T02:39:59.799Z,100182.87
2023-02-02T02:43:07.258Z,100182.94
2023-02-02T02:46:10.450Z,100170.13
2023-02-02T02:49:13.740Z,100182.22
2023-02-02T02:52:16.343Z,100166.81
2023-02-02T02:55:19.346Z,100178.00
2023-02-02T02:58:29.331Z,100179.72
2023-02-02T03:01:40.257Z,100183.97
2023-02-02T03:05:03.324Z,100187.41
2023-02-02T03:08:20.373Z,100179.72
2023-02-02T03:11:22.862Z,100177.13
2023-02-02T03:14:25.546Z,100185.72
2023-02-02T03:17:28.163Z,100160.81
2023-02-02T03:20:31.005Z,100163.41
2023-02-02T03:23:34.177Z,100164.28
2023-02-02T03:26:37.530Z,100175.47
2023-02-02T03:29:39.893Z,100167.78
2023-02-02T03:32:42.896Z,100172.13
2023-02-02T03:35:45.357Z,100178.12
2023-02-02T03:38:48.293Z,100178.16
2023-02-02T03:41:50.624Z,100164.44
2023-02-02T03:44:53.500Z,100160.19
2023-02-02T03:47:55.829Z,100156.81
2023-02-02T03:50:58.458Z,100177.44
2023-02-02T03:54:00.813Z,100173.97
2023-02-02T03:57:03.673Z,100179.19
2023-02-02T04:00:06.500Z,100170.66
2023-02-02T04:03:14.571Z,100150.13
2023-02-02T04:06:19.814Z,100154.44
2023-02-02T04:09:22.206Z,100145.03
2023-02-02T04:12:25.172Z,100133.06
2023-02-02T04:15:27.665Z,100140.00
2023-02-02T04:18:30.504Z,100150.38
2023-02-02T04:21:32.930Z,100140.94
2023-02-02T04:24:37.775Z,100163.16
2023-02-02T04:27:40.491Z,100153.78
2023-02-02T04:30:43.697Z,100158.91
2023-02-02T04:33:46.127Z,100165.75
2023-02-02T04:36:48.771Z,100161.53
2023-02-02T04:39:51.257Z,100174.38
2023-02-02T04:42:54.011Z,100170.91
2023-02-02T04:45:57.116Z,100175.22
2023-02-02T04:48:59.790Z,100179.50
2023-02-02T04:52:02.207Z,100188.06
2023-02-02T04:55:04.797Z,100193.19
2023-02-02T04:58:07.269Z,100188.09
2023-02-02T05:01:17.783Z,100188.12
2023-02-02T05:04:20.124Z,100189.84
2023-02-02T05:07:22.888Z,100183.91
2023-02-02T05:10:25.461Z,100193.31
2023-02-02T05:13:28.066Z,100204.47
2023-02-02T05:16:30.384Z,100215.66
2023-02-02T05:19:33.214Z,100216.56
2023-02-02T05:22:35.765Z,100228.50
2023-02-02T05:25:38.376Z,100239.56
2023-02-02T05:28:42.084Z,100252.41
2023-02-02T05:31:44.790Z,100264.37
2023-02-02T05:34:47.204Z,100264.37
2023-02-02T05:37:50.025Z,100269.50
2023-02-02T05:40:53.196Z,100271.22
2023-02-02T05:43:55.879Z,100278.06
2023-02-02T05:46:58.313Z,100278.94
2023-02-02T05:50:02.466Z,100277.19
2023-02-02T05:53:04.985Z,100278.94
2023-02-02T05:56:07.685Z,100277.28
2023-02-02T05:59:10.257Z,100277.31
2023-02-02T06:02:12.879Z,100272.16
2023-02-02T06:05:15.609Z,100278.16
2023-02-02T06:08:17.913Z,100273.81
2023-02-02T06:11:20.812Z,100270.44
2023-02-02T06:14:23.180Z,100275.59
2023-02-02T06:17:25.807Z,100288.41
2023-02-02T06:20:28.537Z,100284.13
2023-02-02T06:23:31.267Z,100285.00
2023-02-02T06:26:33.741Z,100285.84
2023-02-02T06:29:36.497Z,100284.97
2023-02-02T06:32:39.188Z,100273.00
2023-02-02T06:35:41.915Z,100259.28
2023-02-02T06:38:44.334Z,100254.19
2023-02-02T06:41:48.295Z,100256.75
2023-02-02T06:44:50.718Z,100263.59
2023-02-02T06:47:53.360Z,100260.16
2023-02-02T06:50:59.618Z,100263.59
2023-02-02T06:54:04.793Z,100266.94
2023-02-02T06:57:07.181Z,100272.88
2023-02-02T07:00:10.367Z,100264.31
2023-02-02T07:03:13.331Z,100266.00
2023-02-02T07:06:16.160Z,100281.41
2023-02-02T07:09:18.853Z,100290.78
2023-02-02T07:12:21.536Z,100279.59
2023-02-02T07:15:24.532Z,100303.56
2023-02-02T07:18:27.404Z,100302.69
2023-02-02T07:21:35.475Z,100326.66
2023-02-02T07:24:38.292Z,100330.91
2023-02-02T07:27:40.645Z,100342.03
2023-02-02T07:30:43.315Z,100338.59
2023-02-02T07:33:46.619Z,100345.34
2023-02-02T07:36:49.397Z,100341.84
2023-02-02T07:39:51.701Z,100358.81
2023-02-02T07:42:54.299Z,100362.59
2023-02-02T07:46:04.310Z,100357.03
2023-02-02T07:49:07.317Z,100361.12
2023-02-02T07:52:09.665Z,100376.03
2023-02-02T07:55:26.463Z,100363.28
2023-02-02T07:58:29.321Z,100360.03
2023-02-02T08:01:32.033Z,100366.13
2023-02-02T08:04:34.774Z,100357.66
2023-02-02T08:07:37.067Z,100358.75
2023-02-02T08:10:39.775Z,100358.78
2023-02-02T08:13:43.106Z,100356.50
2023-02-02T08:16:45.688Z,100356.28
2023-02-02T08:19:47.948Z,100358.78
2023-02-02T08:22:50.767Z,100356.97
2023-02-02T08:25:53.649Z,100354.56
2023-02-02T08:29:00.678Z,100345.22
2023-02-02T08:32:03.944Z,100354.72
2023-02-02T08:35:06.747Z,100349.75
2023-02-02T08:38:09.435Z,100347.03
2023-02-02T08:41:13.388Z,100337.91
2023-02-02T08:44:16.114Z,100333.75
2023-02-02T08:47:18.764Z,100336.25
2023-02-02T08:50:21.651Z,100326.75
2023-02-02T08:53:24.932Z,100339.72
2023-02-02T08:56:27.419Z,100345.87
2023-02-02T08:59:30.010Z,100345.00
2023-02-02T09:02:32.836Z,100347.09
2023-02-02T09:05:35.726Z,100342.69
2023-02-02T09:08:38.585Z,100357.91
2023-02-02T09:11:41.575Z,100354.50
2023-02-02T09:14:43.984Z,100362.91
2023-02-02T09:17:46.593Z,100366.94
2023-02-02T09:20:49.114Z,100378.78
2023-02-02T09:23:53.805Z,100379.19
2023-02-02T09:26:56.326Z,100384.47
2023-02-02T09:29:59.044Z,100386.16
2023-02-02T09:33:01.424Z,100386.31
2023-02-02T09:36:08.943Z,100392.44
2023-02-02T09:39:12.910Z,100399.00
2023-02-02T09:42:15.783Z,100358.03
2023-02-02T09:45:36.997Z,100382.22
2023-02-02T09:49:11.881Z,100381.22
2023-02-02T09:52:17.490Z,100388.66
2023-02-02T09:55:23.856Z,100394.69
2023-02-02T09:58:33.788Z,100396.78
2023-02-02T10:01:37.939Z,100396.09
2023-02-02T10:04:43.865Z,100386.63
2023-02-02T10:07:48.689Z,100386.00
2023-02-02T10:10:51.940Z,100387.41
2023-02-02T10:13:58.004Z,100391.16
2023-02-02T10:17:06.402Z,100397.91
2023-02-02T10:20:16.955Z,100399.00
2023-02-02T10:23:25.049Z,100397.91
2023-02-02T10:26:38.677Z,100390.06
2023-02-02T10:29:58.532Z,100390.34
2023-02-02T10:33:05.885Z,100378.44
2023-02-02T10:36:18.633Z,100396.91
2023-02-02T10:39:27.105Z,100384.97
2023-02-02T10:42:30.597Z,100382.47
2023-02-02T10:45:33.540Z,100363.66
2023-02-02T10:48:36.249Z,100367.78
2023-02-02T10:51:40.734Z,100373.50
2023-02-02T10:55:04.435Z,100366.59
2023-02-02T10:58:12.978Z,100350.06
2023-02-02T11:01:18.199Z,100349.16
2023-02-02T11:04:40.899Z,100361.25
2023-02-02T11:07:43.582Z,100366.34
2023-02-02T11:10:46.990Z,100364.38
2023-02-02T11:13:55.812Z,100356.69
2023-02-02T11:17:05.448Z,100366.84
2023-02-02T11:20:25.761Z,100369.44
2023-02-02T11:23:28.727Z,100375.06
2023-02-02T11:26:47.539Z,100374.72
2023-02-02T11:29:52.034Z,100365.84
2023-02-02T11:32:55.902Z,100385.72
2023-02-02T11:35:59.871Z,100375.03
2023-02-02T11:39:15.441Z,100394.69
2023-02-02T11:42:20.220Z,100397.56
2023-02-02T11:45:29.290Z,100397.66
2023-02-02T11:48:36.809Z,100401.06
2023-02-02T11:51:39.571Z,100402.31
2023-02-02T11:54:45.749Z,100407.81
2023-02-02T11:58:07.107Z,100420.56
2023-02-02T12:01:16.372Z,100414.66
2023-02-02T12:04:19.036Z,100413.84
2023-02-02T12:07:47.638Z,100416.63
2023-02-02T12:10:59.084Z,100415.19
2023-02-02T12:14:20.083Z,100407.09
2023-02-02T12:17:25.475Z,100401.84
2023-02-02T12:20:35.231Z,100406.09
2023-02-02T12:23:40.674Z,100405.28
2023-02-02T12:26:48.898Z,100405.25
2023-02-02T12:29:54.701Z,100401.19
2023-02-02T12:33:00.403Z,100404.62
2023-02-02T12:36:09.087Z,100403.81
2023-02-02T12:39:26.535Z,100403.81
2023-02-02T12:42:35.103Z,100406.37
2023-02-02T12:45:38.003Z,100405.50
2023-02-02T12:48:43.472Z,100398.62
2023-02-02T12:51:45.811Z,100400.47
2023-02-02T12:54:57.761Z,100393.72
2023-02-02T12:58:00.377Z,100410.09
2023-02-02T13:01:10.584Z,100408.41
2023-02-02T13:07:57.120Z,100402.25
2023-02-02T13:11:28.984Z,100409.16
2023-02-02T13:14:34.694Z,100408.34
2023-02-02T13:17:40.920Z,100409.13
2023-02-02T13:20:46.454Z,100411.00
2023-02-02T13:23:50.606Z,100418.69
2023-02-02T13:26:54.091Z,100416.06
2023-02-02T13:30:01.687Z,100419.50
2023-02-02T13:33:13.636Z,100423.91
2023-02-02T13:36:25.551Z,100429.09
2023-02-02T13:39:38.577Z,100419.69
2023-02-02T13:42:47.875Z,100421.34
2023-02-02T13:45:55.628Z,100414.41
2023-02-02T13:49:10.959Z,100424.66
2023-02-02T13:52:17.045Z,100415.22
2023-02-02T13:55:31.720Z,100415.22
2023-02-02T13:58:34.641Z,100431.41
2023-02-02T14:01:37.150Z,100417.53
2023-02-02T14:04:39.827Z,100426.91
2023-02-02T14:07:44.122Z,100428.38
2023-02-02T14:10:52.974Z,100429.16
2023-02-02T14:14:17.174Z,100420.66
2023-02-02T14:17:22.910Z,100422.56
2023-02-02T14:20:45.569Z,100429.72
2023-02-02T14:23:55.490Z,100425.53
2023-02-02T14:26:59.177Z,100445.50
2023-02-02T14:30:14.173Z,100415.47
2023-02-02T14:33:22.540Z,100437.09
2023-02-02T14:36:26.132Z,100444.00
2023-02-02T14:39:30.253Z,100446.56
2023-02-02T14:43:06.891Z,100446.66
2023-02-02T14:46:12.645Z,100445.00
2023-02-02T14:49:17.131Z,100438.97
2023-02-02T14:52:21.707Z,100454.41
2023-02-02T14:55:24.939Z,100459.56
2023-02-02T14:58:34.184Z,100471.63
2023-02-02T15:01:37.969Z,100462.19
2023-02-02T15:04:40.456Z,100463.00
2023-02-02T15:07:53.386Z,100464.72
2023-02-02T15:10:57.712Z,100465.69
2023-02-02T15:14:07.077Z,100475.25
2023-02-02T15:17:24.344Z,100471.88
2023-02-02T15:20:27.057Z,100471.91
2023-02-02T15:23:29.407Z,100467.66
2023-02-02T15:26:34.323Z,100479.75
2023-02-02T15:29:44.269Z,100474.63
2023-02-02T15:32:47.503Z,100476.34
2023-02-02T15:35:49.896Z,100484.16
2023-02-02T15:38:54.267Z,100491.97
2023-02-02T15:42:17.240Z,100494.59
2023-02-02T15:45:39.833Z,100513.53
2023-02-02T15:48:43.785Z,100509.19
2023-02-02T15:51:48.964Z,100517.91
2023-02-02T15:54:55.241Z,100518.81
2023-02-02T15:57:58.022Z,100516.28
2023-02-02T16:01:05.908Z,100511.25
2023-02-02T16:04:14.600Z,100520.00
2023-02-02T16:07:23.290Z,100512.38
2023-02-02T16:10:26.251Z,100529.59
2023-02-02T16:13:28.836Z,100526.16
2023-02-02T16:16:32.810Z,100533.09
2023-02-02T16:19:35.406Z,100527.94
2023-02-02T16:22:39.295Z,100539.13
2023-02-02T16:25:48.386Z,100556.28
2023-02-02T16:28:51.453Z,100557.97
2023-02-02T16:31:54.296Z,100552.81
2023-02-02T16:34:57.307Z,100558.75
2023-02-02T16:38:17.762Z,100575.19
2023-02-02T16:41:27.886Z,100570.09
2023-02-02T16:44:36.401Z,100571.03
2023-02-02T16:47:39.144Z,100590.84
2023-02-02T16:50:41.610Z,100585.66
2023-02-02T16:53:45.116Z,100601.16
2023-02-02T16:56:49.809Z,100599.41
2023-02-02T16:59:54.341Z,100610.56
2023-02-02T17:03:00.187Z,100608.00
2023-02-02T17:06:03.832Z,100605.38
2023-02-02T17:09:24.909Z,100615.72
2023-02-02T17:12:35.393Z,100611.50
2023-02-02T17:15:37.973Z,100612.41
2023-02-02T17:18:40.888Z,100615.84
2023-02-02T17:21:43.328Z,100626.13
2023-02-02T17:24:49.483Z,100621.00
2023-02-02T17:27:53.656Z,100628.75
2023-02-02T17:31:01.459Z,100630.47
2023-02-02T17:34:09.705Z,100642.53
2023-02-02T17:37:12.621Z,100639.91
2023-02-02T17:40:16.632Z,100644.25
2023-02-02T17:43:19.310Z,100643.34
2023-02-02T17:46:21.702Z,100642.53
2023-02-02T17:49:24.568Z,100639.97
2023-02-02T17:52:27.044Z,100646.00
2023-02-02T17:55:31.761Z,100648.56
2023-02-02T17:58:34.450Z,100653.72
2023-02-02T18:01:39.367Z,100655.44
2023-02-02T18:04:45.268Z,100648.56
2023-02-02T18:07:47.918Z,100655.47
2023-02-02T18:10:50.828Z,100659.78
2023-02-02T18:13:53.279Z,100645.19
2023-02-02T18:16:56.181Z,100650.31
2023-02-02T18:19:58.606Z,100669.19
2023-02-02T18:23:01.734Z,100682.94
2023-02-02T18:26:14.580Z,100700.94
2023-02-02T18:29:17.501Z,100698.37
2023-02-02T18:32:20.036Z,100711.22
2023-02-02T18:35:22.893Z,100712.97
2023-02-02T18:38:26.275Z,100719.84
2023-02-02T18:41:29.515Z,100718.97
2023-02-02T18:44:34.453Z,100717.25
2023-02-02T18:47:37.220Z,100715.53
2023-02-02T18:50:39.900Z,100714.66
2023-02-02T18:53:43.475Z,100719.84
2023-02-02T18:56:46.048Z,100709.56
2023-02-02T18:59:49.839Z,100712.13
2023-02-02T19:02:53.667Z,100709.53
2023-02-02T19:06:15.800Z,100718.13
2023-02-02T19:09:18.438Z,100738.69
2023-02-02T19:12:26.792Z,100731.84
2023-02-02T19:15:31.456Z,100745.53
2023-02-02T19:18:34.357Z,100738.69
2023-02-02T19:21:36.997Z,100734.41
2023-02-02T19:24:40.405Z,100734.41
2023-02-02T19:27:43.072Z,100729.25
2023-02-02T19:30:46.032Z,100736.13
2023-02-02T19:33:50.249Z,100737.81
2023-02-02T19:36:53.116Z,100733.56
2023-02-02T19:39:56.523Z,100740.44
2023-02-02T19:43:08.182Z,100743.84
2023-02-02T19:46:15.495Z,100737.84
2023-02-02T19:49:24.716Z,100736.09
2023-02-02T19:52:27.718Z,100742.09
2023-02-02T19:55:35.765Z,100741.25
2023-02-02T19:58:38.401Z,100756.69
2023-02-02T20:01:45.849Z,100761.78
2023-02-02T20:04:53.200Z,100765.22
2023-02-02T20:08:00.350Z,100770.34
2023-02-02T20:11:15.763Z,100778.91
2023-02-02T20:14:18.804Z,100790.91
2023-02-02T20:17:28.932Z,100799.44
2023-02-02T20:20:39.371Z,100806.31
2023-02-02T20:23:43.620Z,100810.53
2023-02-02T20:26:46.423Z,100804.56
2023-02-02T20:29:51.035Z,100806.25
2023-02-02T20:32:55.522Z,100802.81
2023-02-02T20:35:59.074Z,100805.41
2023-02-02T20:39:22.041Z,100818.25
2023-02-02T20:42:25.261Z,100816.53
2023-02-02T20:45:27.895Z,100827.66
2023-02-02T20:48:30.882Z,100841.34
2023-02-02T20:51:33.486Z,100836.16
2023-02-02T20:54:36.957Z,100833.56
2023-02-02T20:57:40.286Z,100851.56
2023-02-02T21:00:43.006Z,100848.97
2023-02-02T21:03:45.957Z,100848.88
2023-02-02T21:06:49.367Z,100858.28
2023-02-02T21:09:51.938Z,100861.69
2023-02-02T21:12:54.984Z,100871.06
2023-02-02T21:15:57.349Z,100865.91
2023-02-02T21:19:00.869Z,100867.63
2023-02-02T21:22:03.506Z,100863.31
2023-02-02T21:25:06.544Z,100861.56
2023-02-02T21:28:08.889Z,100865.75
2023-02-02T21:31:12.906Z,100858.91
2023-02-02T21:34:17.346Z,100864.00
2023-02-02T21:37:20.019Z,100866.63
2023-02-02T21:40:27.672Z,100869.19
2023-02-02T21:43:32.817Z,100861.50
2023-02-02T21:46:37.180Z,100875.19
2023-02-02T21:49:40.005Z,100869.22
2023-02-02T21:52:42.383Z,100885.44
2023-02-02T21:55:46.165Z,100899.97
2023-02-02T21:58:48.575Z,100901.69
2023-02-02T22:01:51.968Z,100891.44
2023-02-02T22:04:57.640Z,100890.59
2023-02-02T22:08:01.239Z,100890.66
2023-02-02T22:11:04.061Z,100892.34
2023-02-02T22:14:18.757Z,100890.69
2023-02-02T22:17:25.873Z,100902.66
2023-02-02T22:20:32.003Z,100910.31
2023-02-02T22:23:34.803Z,100921.41
2023-02-02T22:26:37.120Z,100927.34
2023-02-02T22:29:39.879Z,100917.97
2023-02-02T22:32:42.577Z,100920.47
2023-02-02T22:35:46.254Z,100927.28
2023-02-02T22:38:48.674Z,100938.37
2023-02-02T22:41:51.679Z,100933.31
2023-02-02T22:44:54.055Z,100938.37
2023-02-02T22:47:56.671Z,100944.31
2023-02-02T22:50:59.060Z,100957.12
2023-02-02T22:54:01.752Z,100952.03
2023-02-02T22:57:04.064Z,100963.13
2023-02-02T23:00:12.748Z,100972.50
2023-02-02T23:03:15.285Z,100968.25
2023-02-02T23:06:17.887Z,100988.66
2023-02-02T23:09:20.387Z,100992.09
2023-02-02T23:12:23.249Z,100992.94
2023-02-02T23:15:25.937Z,101002.19
2023-02-02T23:18:28.597Z,101002.28
2023-02-02T23:21:31.744Z,101014.19
2023-02-02T23:24:34.347Z,101017.56
2023-02-02T23:27:36.760Z,101017.63
2023-02-02T23:30:39.480Z,101017.66
2023-02-02T23:33:41.951Z,101008.19
2023-02-02T23:36:44.610Z,101025.22
2023-02-02T23:39:46.997Z,101015.75
2023-02-02T23:42:49.622Z,101026.75
2023-02-02T23:45:52.150Z,101030.88
2023-02-02T23:48:54.863Z,101032.53
2023-02-02T23:51:57.263Z,101039.34
2023-02-02T23:55:01.478Z,101047.97
2023-02-02T23:58:03.865Z,101051.41
